Tiempo atmosférico en la estación meteorológica de Amorebieta--Etxano, Bizkaia (100 m.)



Fecha
DESCASC
Temp. máxima en grados centígrados (hora)
DESCASC
Temp. mínima en grados centígrados (hora)
DESCASC
Temp. media en grados centígrados
DESCASC
Racha de viento máxima en m/sg (hora)
DESCASC
Velocidad máxima media en intervalos de 10 minutos(hora)
DESCASC
Precipitaciones diarias en mm
DESCASC
Precipitaciones de 00:00 a 06:00 en mm
DESCASC
Precipitaciones de 06:00 a 12:00 en mm
DESCASC
Precipitaciones de 12:00 a 18:00 en mm
DESCASC
Precipitaciones de 18:00 a 24:00 en mm
DESCASC
20-09-2020 25.2 (15:20) 12.3 (08:20) 18.8 6.67 (16:30) 4.17 (16:20) 0.2 0 0.2 0 0
19-09-2020 22.8 (11:00) 15.6 (23:59) 19.2 8.89 (00:20) 5.28 (12:10) 0.6 0 0 0.6 0
18-09-2020 28.6 (15:50) 18.1 (23:30) 23.4 14.17 (05:40) 7.5 (05:20) 0.2 0 0 0.2 0
17-09-2020 31.7 (17:50) 17.4 (00:00) 24.6 6.67 (17:30) 2.78 (17:30) 0.6 0 0.6 0 0
16-09-2020 30.1 (15:00) 15.8 (00:00) 23 6.94 (16:40) 4.17 (16:40) 0 0 0 0 0
15-09-2020 30.9 (15:10) 17.3 (00:00) 24.1 8.33 (15:40) 5.56 (15:30) 0.4 0.4 0 0 0
14-09-2020 35.8 (15:00) 19.6 (00:00) 27.7 11.67 (05:50) 6.67 (16:20) 0 0 0 0 0
13-09-2020 36.2 (17:30) 12.5 (00:00) 24.4 6.39 (13:10) 3.33 (18:10) 0 0 0 0 0
12-09-2020 27.1 (14:20) 13.6 (00:00) 20.4 8.61 (15:40) 4.72 (15:10) 0 0 0 0 0
11-09-2020 27.8 (14:20) 15.1 (00:00) 21.4 8.89 (16:40) 5.83 (17:00) 0 0 0 0 0
10-09-2020 28.4 (16:50) 12.7 (00:00) 20.5 6.67 (16:50) 4.44 (16:50) 0 0 0 0 0
09-09-2020 27.2 (14:40) 10.9 (00:00) 19.1 7.78 (16:20) 4.72 (16:40) 0 0 0 0 0
08-09-2020 24.3 (15:00) 10.6 (00:00) 17.4 9.17 (15:20) 5.28 (16:40) 0 0 0 0 0
07-09-2020 21.2 (14:30) 13.7 (23:59) 17.5 7.78 (13:20) 4.17 (18:10) 2 0.2 1.8 0 0
06-09-2020 21.8 (14:00) 16.2 (00:00) 19 8.33 (14:10) 5 (16:00) 0 0 0 0 0
05-09-2020 22.5 (12:20) 18.3 (00:00) 20.4 8.33 (18:10) 3.89 (18:10) 0 0 0 0 0
04-09-2020 35.4 (16:50) 12.5 (00:00) 24 7.78 (18:30) 5.28 (18:20) 0 0 0 0 0
03-09-2020 29.5 (15:20) 9.7 (00:00) 19.6 6.39 (18:00) 3.06 (16:20) 0 0 0 0 0
02-09-2020 24.1 (16:40) 12.4 (00:00) 18.3 7.5 (15:00) 4.17 (17:30) 0 0 0 0 0
01-09-2020 24.7 (15:40) 11.6 (00:00) 18.2 6.67 (17:30) 3.89 (17:40) 0 0 0 0 0
31-08-2020 23.5 (15:10) 10.4 (00:00) 16.9 6.11 (16:10) 3.61 (17:00) 0 0 0 0 0
30-08-2020 19 (14:00) 10.5 (00:00) 14.8 7.5 (15:10) 4.44 (15:10) 6.2 0 5.4 0.6 0.2
29-08-2020 18.8 (13:40) 12.3 (00:00) 15.5 10.56 (14:50) 6.39 (14:50) 25.2 0.8 0.4 6.4 17.6
28-08-2020 20.9 (00:00) 15 (00:00) 17.9 8.89 (05:40) 5.83 (05:40) 6.8 1.8 2.8 1.2 1
27-08-2020 30 (13:50) 16.7 (00:00) 23.4 10.56 (14:20) 6.39 (14:10) 0 0 0 0 0
26-08-2020 27.9 (17:10) 19 (00:00) 23.4 8.89 (18:10) 4.72 (16:30) 0 0 0 0 0
25-08-2020 29.5 (14:50) 13.4 (00:00) 21.4 8.89 (16:50) 5.28 (16:50) 0 0 0 0 0
24-08-2020 25.8 (15:30) 13.1 (00:00) 19.4 8.06 (17:50) 4.44 (16:40) 0 0 0 0 0
23-08-2020 24.4 (14:20) 16.2 (00:00) 20.3 8.33 (16:10) 4.17 (16:40) 0 0 0 0 0
22-08-2020 24.6 (14:10) 15.9 (00:00) 20.3 7.78 (15:00) 5 (15:10) 0.2 0 0 0 0.2

Gráficas

Temp. máximas Temp. mínimas Temp. medias Precipitaciones Rachas de viento máximas Velocidades máximas media en intervalos de 10 minutos

Datos horarios

Fecha y hora oficial Temperatura (ºC) Velocidad del viento (km/h) Dirección del viento Racha (km/h) Dirección de racha Precipitación (mm) Presión (hPa) Tendencia (hPa) Humedad (%)
2020-09-20 23:00:00 18.2 0 Calma 5 Oeste 0 -- -- 89
2020-09-20 22:00:00 18.6 3 Sudoeste 10 Oeste 0 -- -- 87
2020-09-20 21:00:00 19.4 5 Noroeste 9 Norte 0 -- -- 86
2020-09-20 20:00:00 19.7 3 Noroeste 16 Norte 0 -- -- 84
2020-09-20 19:00:00 20.6 8 Noroeste 19 Norte 0 -- -- 79
2020-09-20 18:00:00 21.6 10 Noroeste 21 Noroeste 0 -- -- 73
2020-09-20 17:00:00 22.6 10 Noroeste 24 Noroeste 0 -- -- 69
2020-09-20 16:00:00 23.4 15 Noroeste 23 Noroeste 0 -- -- 64
2020-09-20 15:00:00 24.8 10 Noroeste 20 Norte 0 -- -- 57
2020-09-20 14:00:00 24.4 8 Noroeste 19 Noroeste 0 -- -- 59
2020-09-20 13:00:00 22.4 6 Norte 17 Noroeste 0 -- -- 66
2020-09-20 12:00:00 20.9 9 Norte 16 Norte 0 -- -- 72
2020-09-20 11:00:00 17 3 Sudoeste 6 Este 0 -- -- 91
2020-09-20 10:00:00 14.4 0 Calma 4 Sudeste 0 -- -- 99
2020-09-20 09:00:00 12.8 0 Calma 5 Este 0 -- -- 99
2020-09-20 08:00:00 12.5 4 Este 6 Este 0 -- -- 99
2020-09-20 07:00:00 13 0 Calma 2 Sur 0.2 -- -- 98
2020-09-20 06:00:00 13.5 0 Calma 8 Sudeste 0 -- -- 98
2020-09-20 05:00:00 13.6 4 Sudeste 10 Sudeste 0 -- -- 98
2020-09-20 04:00:00 13.5 3 Este 5 Este 0 -- -- 98
2020-09-20 03:00:00 13.9 3 Sudeste 6 Este 0 -- -- 98
2020-09-20 02:00:00 14.6 0 Calma 6 Sur 0 -- -- 97
2020-09-20 01:00:00 14.9 0 Calma 12 Este 0 -- -- 96
2020-09-20 00:00:00 15.6 3 Este 5 Este 0 -- -- 96
2020-09-19 23:00:00 16.2 2 Sudoeste 5 Sur 0 -- -- 94
2020-09-19 22:00:00 17.1 3 Sur 4 Sudeste 0 -- -- 92
2020-09-19 21:00:00 18.2 3 Sudeste 19 Oeste 0 -- -- 89
2020-09-19 20:00:00 18.9 4 Oeste 20 Noroeste 0 -- -- 86
2020-09-19 19:00:00 20.6 11 Noroeste 18 Noroeste 0 -- -- 79
2020-09-19 18:00:00 21.8 9 Noroeste 17 Noroeste 0 -- -- 75
2020-09-19 17:00:00 21 10 Noroeste 24 Noroeste 0 -- -- 75
2020-09-19 16:00:00 22.1 12 Oeste 28 Noroeste 0 -- -- 72
2020-09-19 15:00:00 20.5 6 Nordeste 21 Noroeste 0.2 -- -- 84
2020-09-19 14:00:00 20.4 6 Norte 14 Este 0 -- -- 85
2020-09-19 13:00:00 20.2 3 Sudeste 29 Sur 0.4 -- -- 82
2020-09-19 12:00:00 22.5 11 Sudeste 27 Sudeste 0 -- -- 59
2020-09-19 11:00:00 22.8 7 Sudeste 24 Sudeste 0 -- -- 58
2020-09-19 10:00:00 20.8 4 Sudeste 15 Nordeste 0 -- -- 67
2020-09-19 09:00:00 17.9 3 Noroeste 14 Este 0 -- -- 81
2020-09-19 08:00:00 17.6 4 Sudeste 13 Este 0 -- -- 81
2020-09-19 07:00:00 17.3 3 Norte 11 Nordeste 0 -- -- 82
2020-09-19 06:00:00 17.7 2 Este 10 Sudoeste 0 -- -- 79
2020-09-19 05:00:00 17.4 4 Noroeste 13 Norte 0 -- -- 82
2020-09-19 04:00:00 16.8 3 Norte 7 Noroeste 0 -- -- 84
2020-09-19 03:00:00 17.6 0 Calma 9 Este 0 -- -- 80
2020-09-19 02:00:00 19.3 4 Sudoeste 11 Norte 0 -- -- 72
2020-09-19 01:00:00 20.5 4 Noroeste 32 Sudoeste 0 -- -- 66
2020-09-19 00:00:00 18.4 3 Sudoeste 8 Este 0 -- -- 91
2020-09-18 23:00:00 18.4 0 Calma 6 Sudeste 0 -- -- 91
2020-09-18 22:00:00 19 2 Oeste 8 Sudeste 0 -- -- 86
2020-09-18 21:00:00 20.3 3 Sur 10 Este 0 -- -- 82
2020-09-18 20:00:00 21 4 Sudeste 10 Sudeste 0 -- -- 77
2020-09-18 19:00:00 22 2 Este 10 Sudeste 0 -- -- 67
2020-09-18 18:00:00 22.9 8 Sudeste 31 Sudeste 0 -- -- 60
2020-09-18 17:00:00 24.3 13 Este 37 Sudeste 0 -- -- 57
2020-09-18 16:00:00 27.7 11 Sudeste 28 Sudeste 0 -- -- 49
2020-09-18 15:00:00 26.8 12 Sudeste 34 Este 0 -- -- 48
2020-09-18 14:00:00 25 11 Este 28 Sudeste 0 -- -- 52
2020-09-18 13:00:00 23.9 12 Sudeste 29 Sur 0.2 -- -- 51
2020-09-18 12:00:00 23.5 15 Sur 30 Oeste 0 -- -- 64
2020-09-18 11:00:00 23.7 14 Sudeste 29 Sudeste 0 -- -- 65
2020-09-18 10:00:00 22.6 10 Sur 21 Sur 0 -- -- 71
2020-09-18 09:00:00 22 6 Sudeste 19 Sudeste 0 -- -- 73
2020-09-18 08:00:00 22.3 7 Sudeste 24 Sur 0 -- -- 69
2020-09-18 07:00:00 22.6 12 Sudeste 37 Sudeste 0 -- -- 62
2020-09-18 06:00:00 23.7 16 Sudeste 51 Sudeste 0 -- -- 58
2020-09-18 05:00:00 25.2 21 Sur 50 Sudeste 0 -- -- 53
2020-09-18 04:00:00 23.6 5 Sur 32 Sudeste 0 -- -- 62
2020-09-18 03:00:00 26.2 25 Sur 48 Sudeste 0 -- -- 56
2020-09-18 02:00:00 28.5 25 Sudeste 49 Sur 0 -- -- 44
2020-09-18 01:00:00 26.4 9 Sudeste 26 Sudeste 0 -- -- 47
2020-09-18 00:00:00 25 6 Sudeste 16 Este 0 -- -- 52
2020-09-17 23:00:00 25.5 7 Sudeste 14 Sudeste 0 -- -- 53
2020-09-17 22:00:00 24.5 6 Sudeste 15 Sudeste 0 -- -- 58
2020-09-17 21:00:00 25.7 6 Sudeste 10 Sudeste 0 -- -- 56
2020-09-17 20:00:00 28.6 5 Sudeste 13 Sudeste 0 -- -- 48
2020-09-17 19:00:00 30.4 7 Sudeste 23 Este 0 -- -- 40
2020-09-17 18:00:00 31.6 5 Sudeste 24 Este 0 -- -- 36
2020-09-17 17:00:00 30 3 Sudoeste 12 Oeste 0 -- -- 58
2020-09-17 16:00:00 30.1 6 Norte 14 Norte 0 -- -- 55
2020-09-17 15:00:00 27.4 3 Noroeste 8 Norte 0 -- -- 60
2020-09-17 14:00:00 24.8 2 Oeste 5 Este 0 -- -- 77
2020-09-17 13:00:00 22.7 4 Este 6 Este 0 -- -- 87
2020-09-17 12:00:00 21.7 0 Calma 3 Sudeste 0 -- -- 91
2020-09-17 11:00:00 20.9 0 Calma 5 Sur 0.6 -- -- 92
2020-09-17 10:00:00 20.4 4 Sur 10 Sudeste 0 -- -- 88
2020-09-17 09:00:00 18.9 4 Sudeste 11 Sudeste 0 -- -- 94
2020-09-17 08:00:00 18.3 4 Sudeste 10 Sudeste 0 -- -- 95
2020-09-17 07:00:00 17.9 3 Sudeste 9 Sudeste 0 -- -- 97
2020-09-17 06:00:00 17.5 2 Sudeste 6 Sudeste 0 -- -- 97
2020-09-17 05:00:00 17.6 2 Sudoeste 6 Este 0 -- -- 96
2020-09-17 04:00:00 17.8 3 Sur 6 Sudeste 0 -- -- 95
2020-09-17 03:00:00 18.3 4 Sudeste 5 Este 0 -- -- 95
2020-09-17 02:00:00 18.9 2 Sudeste 5 Sudeste 0 -- -- 93
2020-09-17 01:00:00 19.5 2 Sudeste 4 Sur 0 -- -- 92
2020-09-17 00:00:00 20.2 3 Sur 4 Sudeste 0 -- -- 90
2020-09-16 23:00:00 20.7 0 Calma 4 Noroeste 0 -- -- 87
2020-09-16 22:00:00 21.8 0 Calma 6 Norte 0 -- -- 82
2020-09-16 21:00:00 23.2 0 Calma 20 Norte 0 -- -- 77
2020-09-16 20:00:00 25.2 13 Noroeste 21 Noroeste 0 -- -- 67
2020-09-16 19:00:00 27.5 8 Norte 15 Norte 0 -- -- 58
2020-09-16 18:00:00 29.2 5 Oeste 18 Oeste 0 -- -- 57
2020-09-16 17:00:00 28.7 14 Norte 25 Norte 0 -- -- 58
2020-09-16 16:00:00 29.9 12 Norte 24 Norte 0 -- -- 58
2020-09-16 15:00:00 30.1 9 Nordeste 18 Norte 0 -- -- 54
2020-09-16 14:00:00 29.4 7 Norte 15 Nordeste 0 -- -- 50
2020-09-16 13:00:00 27.1 3 Norte 7 Noroeste 0 -- -- 59
2020-09-16 12:00:00 23.6 2 Noroeste 6 Sur 0 -- -- 66
2020-09-16 11:00:00 20.5 3 Sur 6 Este 0 -- -- 82
2020-09-16 10:00:00 17.8 3 Sudeste 8 Sudeste 0 -- -- 91
2020-09-16 09:00:00 16.3 3 Sudeste 7 Sudeste 0 -- -- 96
2020-09-16 08:00:00 16 5 Sudeste 7 Sudeste 0 -- -- 97
2020-09-16 07:00:00 16.1 2 Sudeste 5 Sudeste 0 -- -- 96
2020-09-16 06:00:00 16.3 0 Calma 6 Sudeste 0 -- -- 95
2020-09-16 05:00:00 16.6 3 Sudeste 5 Este 0 -- -- 95
2020-09-16 04:00:00 16.9 0 Calma 4 Este 0 -- -- 94
2020-09-16 03:00:00 17.3 2 Sudeste 4 Sudeste 0 -- -- 93
2020-09-16 02:00:00 17.8 0 Calma 4 Sudeste 0 -- -- 92
2020-09-16 01:00:00 18.6 2 Sudeste 4 Este 0 -- -- 91
2020-09-16 00:00:00 19.5 0 Calma 5 Este 0 -- -- 89
2020-09-15 23:00:00 20.5 2 Sur 8 Noroeste 0 -- -- 82
2020-09-15 22:00:00 21.9 4 Norte 13 Norte 0 -- -- 85
2020-09-15 21:00:00 22.9 8 Noroeste 17 Noroeste 0 -- -- 78
2020-09-15 20:00:00 24.1 8 Oeste 19 Noroeste 0 -- -- 73
2020-09-15 19:00:00 26.9 11 Noroeste 24 Noroeste 0 -- -- 64
2020-09-15 18:00:00 28.2 10 Norte 27 Norte 0 -- -- 54
2020-09-15 17:00:00 28.6 13 Norte 23 Norte 0 -- -- 56
2020-09-15 16:00:00 29 13 Norte 30 Norte 0 -- -- 56
2020-09-15 15:00:00 30.6 7 Nordeste 17 Este 0 -- -- 42
2020-09-15 14:00:00 30.7 4 Nordeste 15 Sudoeste 0 -- -- 42
2020-09-15 13:00:00 29.4 9 Sudeste 18 Sudeste 0 -- -- 46
2020-09-15 12:00:00 26.8 7 Sudeste 18 Sur 0 -- -- 54
2020-09-15 11:00:00 22.5 3 Noroeste 9 Noroeste 0 -- -- 80
2020-09-15 10:00:00 19.1 0 Calma 7 Norte 0 -- -- 94
2020-09-15 09:00:00 17.6 0 Calma 8 Sudeste 0 -- -- 98
2020-09-15 08:00:00 17.6 0 Calma 6 Sur 0 -- -- 97
2020-09-15 07:00:00 18.1 3 Sudoeste 7 Sudeste 0 -- -- 96
2020-09-15 06:00:00 18.7 4 Sudeste 9 Este 0.2 -- -- 96
2020-09-15 05:00:00 18.8 6 Este 13 Este 0 -- -- 95
2020-09-15 04:00:00 18.6 3 Sudeste 12 Nordeste 0.2 -- -- 94
2020-09-15 03:00:00 18.6 0 Calma 5 Este 0 -- -- 91
2020-09-15 02:00:00 19.5 3 Este 8 Norte 0 -- -- 88
2020-09-15 01:00:00 20.2 5 Nordeste 18 Noroeste 0 -- -- 85
2020-09-15 00:00:00 19.6 9 Noroeste 17 Noroeste 0 -- -- 80
2020-09-14 23:00:00 20.2 3 Sur 6 Sur 0 -- -- 77
2020-09-14 22:00:00 21.6 2 Oeste 6 Nordeste 0 -- -- 71
2020-09-14 21:00:00 22.8 4 Sudeste 8 Sudeste 0 -- -- 67
2020-09-14 20:00:00 23.9 6 Norte 19 Noroeste 0 -- -- 59
2020-09-14 19:00:00 24.8 3 Nordeste 20 Oeste 0 -- -- 55
2020-09-14 18:00:00 26.4 11 Noroeste 30 Noroeste 0 -- -- 54
2020-09-14 17:00:00 28.1 19 Noroeste 36 Noroeste 0 -- -- 49
2020-09-14 16:00:00 35.6 12 Sudeste 27 Sudeste 0 -- -- 25
2020-09-14 15:00:00 35.8 12 Sudeste 27 Sudeste 0 -- -- 26
2020-09-14 14:00:00 33.8 10 Sudeste 29 Sur 0 -- -- 31
2020-09-14 13:00:00 33.2 13 Sudeste 32 Sudeste 0 -- -- 31
2020-09-14 12:00:00 31.5 15 Sudeste 40 Sudeste 0 -- -- 34
2020-09-14 11:00:00 29.5 14 Sudeste 41 Sudeste 0 -- -- 37
2020-09-14 10:00:00 27.9 11 Sudeste 36 Sudeste 0 -- -- 40
2020-09-14 09:00:00 27.1 13 Sudeste 39 Sudeste 0 -- -- 41
2020-09-14 08:00:00 26.5 14 Este 39 Sudeste 0 -- -- 41
2020-09-14 07:00:00 26.9 16 Este 35 Este 0 -- -- 40
2020-09-14 06:00:00 28.1 16 Sudeste 42 Sudeste 0 -- -- 38
2020-09-14 05:00:00 28.6 15 Sudeste 36 Sudeste 0 -- -- 38
2020-09-14 04:00:00 29.1 12 Sudeste 39 Sudeste 0 -- -- 37
2020-09-14 03:00:00 28.9 14 Sudeste 36 Sudeste 0 -- -- 36
2020-09-14 02:00:00 21.6 4 Nordeste 14 Este 0 -- -- 60
2020-09-14 01:00:00 21.4 4 Norte 19 Sudeste 0 -- -- 68
2020-09-14 00:00:00 20.7 5 Norte 13 Norte 0 -- -- 76
2020-09-13 23:00:00 21.1 2 Nordeste 6 Sudoeste 0 -- -- 77
2020-09-13 22:00:00 23 0 Calma 7 Sudoeste 0 -- -- 67
2020-09-13 21:00:00 25.4 3 Sudoeste 6 Sur 0 -- -- 60
2020-09-13 20:00:00 30.7 3 Sudoeste 8 Sur 0 -- -- 45
2020-09-13 19:00:00 35.4 5 Sudeste 23 Sur 0 -- -- 32
2020-09-13 18:00:00 35.9 9 Sudeste 22 Este 0 -- -- 29
2020-09-13 17:00:00 36 9 Sudeste 23 Este 0 -- -- 29
2020-09-13 16:00:00 35.1 7 Sudeste 23 Sudeste 0 -- -- 30
2020-09-13 15:00:00 34.7 8 Sudeste 21 Sur 0 -- -- 31
2020-09-13 14:00:00 31.8 10 Este 23 Sudeste 0 -- -- 37
2020-09-13 13:00:00 29.3 6 Sudeste 17 Sudeste 0 -- -- 45
2020-09-13 12:00:00 23.4 3 Noroeste 8 Norte 0 -- -- 73
2020-09-13 11:00:00 19.2 3 Norte 5 Noroeste 0 -- -- 85
2020-09-13 10:00:00 15.9 0 Calma 4 Sudeste 0 -- -- 97
2020-09-13 09:00:00 13.4 3 Sudeste 7 Este 0 -- -- 98
2020-09-13 08:00:00 12.5 0 Calma 4 Sudeste 0 -- -- 98
2020-09-13 07:00:00 12.8 2 Sudeste 8 Sudeste 0 -- -- 98
2020-09-13 06:00:00 13.3 5 Sudeste 8 Sudeste 0 -- -- 98
2020-09-13 05:00:00 13.5 2 Sur 4 Sudeste 0 -- -- 97
2020-09-13 04:00:00 14.2 3 Sudeste 5 Sudeste 0 -- -- 97
2020-09-13 03:00:00 14.6 2 Este 4 Sudeste 0 -- -- 96
2020-09-13 02:00:00 15.4 0 Calma 4 Este 0 -- -- 95
2020-09-13 01:00:00 16.3 3 Sudeste 5 Sur 0 -- -- 93
2020-09-13 00:00:00 17.1 3 Sur 9 Sur 0 -- -- 91
2020-09-12 23:00:00 17.7 4 Sudeste 7 Sudeste 0 -- -- 89
2020-09-12 22:00:00 18.8 0 Calma 6 Este 0 -- -- 84
2020-09-12 21:00:00 20.9 0 Calma 7 Sudoeste 0 -- -- 76
2020-09-12 20:00:00 23.5 3 Noroeste 11 Noroeste 0 -- -- 66
2020-09-12 19:00:00 25.6 3 Norte 20 Noroeste 0 -- -- 60
2020-09-12 18:00:00 26.2 9 Noroeste 26 Nordeste 0 -- -- 58
2020-09-12 17:00:00 26.2 12 Norte 25 Norte 0 -- -- 59
2020-09-12 16:00:00 26 11 Norte 31 Norte 0 -- -- 62
2020-09-12 15:00:00 26.2 13 Norte 22 Norte 0 -- -- 66
2020-09-12 14:00:00 26.6 7 Noroeste 14 Norte 0 -- -- 66
2020-09-12 13:00:00 24.4 3 Noroeste 8 Noroeste 0 -- -- 67
2020-09-12 12:00:00 21.7 3 Sur 6 Sudeste 0 -- -- 77
2020-09-12 11:00:00 18.3 2 Este 6 Sudeste 0 -- -- 89
2020-09-12 10:00:00 15.4 0 Calma 6 Sudeste 0 -- -- 99
2020-09-12 09:00:00 14.1 2 Sur 5 Este 0 -- -- 99
2020-09-12 08:00:00 14 4 Sudeste 6 Sudeste 0 -- -- 99
2020-09-12 07:00:00 13.7 0 Calma 9 Este 0 -- -- 98
2020-09-12 06:00:00 13.9 4 Sur 7 Sudeste 0 -- -- 98
2020-09-12 05:00:00 14.3 4 Este 6 Sudeste 0 -- -- 98
2020-09-12 04:00:00 14.6 0 Calma 4 Sudeste 0 -- -- 97
2020-09-12 03:00:00 15 0 Calma 3 Nordeste 0 -- -- 96
2020-09-12 02:00:00 15.4 2 Sudeste 4 Sudeste 0 -- -- 96
2020-09-12 01:00:00 16.3 0 Calma 5 Este 0 -- -- 94
2020-09-12 00:00:00 17.2 2 Este 5 Sudeste 0 -- -- 94
2020-09-11 23:00:00 17.9 2 Este 5 Este 0 -- -- 92
2020-09-11 22:00:00 19.2 0 Calma 9 Este 0 -- -- 87
2020-09-11 21:00:00 21.3 0 Calma 12 Noroeste 0 -- -- 81
2020-09-11 20:00:00 23.4 6 Noroeste 14 Noroeste 0 -- -- 74
2020-09-11 19:00:00 25.2 8 Oeste 26 Norte 0 -- -- 69
2020-09-11 18:00:00 25.2 14 Norte 31 Norte 0 -- -- 67
2020-09-11 17:00:00 25.2 21 Norte 32 Norte 0 -- -- 68
2020-09-11 16:00:00 25.7 20 Norte 30 Norte 0 -- -- 67
2020-09-11 15:00:00 26.5 15 Norte 26 Norte 0 -- -- 65
2020-09-11 14:00:00 27.4 6 Sudoeste 15 Sudoeste 0 -- -- 59
2020-09-11 13:00:00 25.5 6 Sudeste 13 Este 0 -- -- 64
2020-09-11 12:00:00 22.4 5 Este 11 Sur 0 -- -- 73
2020-09-11 11:00:00 19.3 2 Este 7 Sur 0 -- -- 90
2020-09-11 10:00:00 16.8 0 Calma 4 Este 0 -- -- 98
2020-09-11 09:00:00 15.6 0 Calma 0 Calma 0 -- -- 98
2020-09-11 08:00:00 15.1 0 Calma 4 Este 0 -- -- 97
2020-09-11 07:00:00 15.6 2 Sudeste 4 Sudeste 0 -- -- 96
2020-09-11 06:00:00 16.2 0 Calma 3 Sudoeste 0 -- -- 96
2020-09-11 05:00:00 16.9 0 Calma 4 Sudeste 0 -- -- 95
2020-09-11 04:00:00 16.7 2 Sudeste 5 Este 0 -- -- 96
2020-09-11 03:00:00 16.7 2 Este 5 Sudeste 0 -- -- 95
2020-09-11 02:00:00 17.5 3 Sudeste 5 Sudeste 0 -- -- 92
2020-09-11 01:00:00 17.7 0 Calma 5 Este 0 -- -- 93
2020-09-11 00:00:00 18 0 Calma 5 Este 0 -- -- 91
2020-09-10 23:00:00 19.5 0 Calma 9 Oeste 0 -- -- 90
2020-09-10 22:00:00 19.7 3 Oeste 14 Noroeste 0 -- -- 88
2020-09-10 21:00:00 21.1 6 Noroeste 14 Noroeste 0 -- -- 84
2020-09-10 20:00:00 23.6 12 Noroeste 21 Noroeste 0 -- -- 71
2020-09-10 19:00:00 25.9 13 Noroeste 22 Oeste 0 -- -- 59
2020-09-10 18:00:00 27.3 12 Noroeste 24 Noroeste 0 -- -- 52
2020-09-10 17:00:00 27.7 14 Noroeste 24 Noroeste 0 -- -- 46
2020-09-10 16:00:00 27.8 12 Noroeste 21 Oeste 0 -- -- 47
2020-09-10 15:00:00 27.3 9 Noroeste 22 Noroeste 0 -- -- 44
2020-09-10 14:00:00 26.3 8 Oeste 18 Oeste 0 -- -- 54
2020-09-10 13:00:00 24.3 8 Noroeste 17 Noroeste 0 -- -- 51
2020-09-10 12:00:00 21 7 Noroeste 12 Norte 0 -- -- 66
2020-09-10 11:00:00 17.5 0 Calma 4 Noroeste 0 -- -- 90
2020-09-10 10:00:00 14.7 0 Calma 3 Sur 0 -- -- 97
2020-09-10 09:00:00 13.3 0 Calma 3 Sur 0 -- -- 98
2020-09-10 08:00:00 12.7 0 Calma 4 Sudeste 0 -- -- 97
2020-09-10 07:00:00 13.2 0 Calma 4 Este 0 -- -- 97
2020-09-10 06:00:00 13.7 3 Sudeste 5 Sudeste 0 -- -- 96
2020-09-10 05:00:00 14.1 2 Sudeste 4 Sudeste 0 -- -- 95
2020-09-10 04:00:00 14.6 0 Calma 4 Sudeste 0 -- -- 95
2020-09-10 03:00:00 14.8 0 Calma 3 Sudeste 0 -- -- 94
2020-09-10 02:00:00 15.1 3 Sur 6 Sudeste 0 -- -- 92
2020-09-10 01:00:00 15.4 0 Calma 4 Sudeste 0 -- -- 92
2020-09-10 00:00:00 16.3 2 Sudeste 6 Este 0 -- -- 91
2020-09-09 23:00:00 17.4 3 Sudeste 5 Norte 0 -- -- 89
2020-09-09 22:00:00 18.8 2 Norte 5 Sudeste 0 -- -- 85
2020-09-09 21:00:00 20.8 3 Sudoeste 13 Oeste 0 -- -- 83
2020-09-09 20:00:00 22.7 12 Oeste 23 Noroeste 0 -- -- 78
2020-09-09 19:00:00 24.7 8 Norte 22 Norte 0 -- -- 56
2020-09-09 18:00:00 25.2 12 Norte 23 Norte 0 -- -- 54
2020-09-09 17:00:00 25.4 16 Norte 28 Norte 0 -- -- 57
2020-09-09 16:00:00 26.2 15 Norte 27 Nordeste 0 -- -- 51
2020-09-09 15:00:00 27.1 13 Norte 23 Noroeste 0 -- -- 50
2020-09-09 14:00:00 27.1 8 Noroeste 15 Noroeste 0 -- -- 48
2020-09-09 13:00:00 25.2 4 Sudoeste 7 Este 0 -- -- 49
2020-09-09 12:00:00 21.1 2 Sudeste 8 Sudoeste 0 -- -- 64
2020-09-09 11:00:00 17.6 0 Calma 6 Sur 0 -- -- 80
2020-09-09 10:00:00 14.3 5 Sudeste 7 Sudeste 0 -- -- 91
2020-09-09 09:00:00 11.5 0 Calma 5 Nordeste 0 -- -- 98
2020-09-09 08:00:00 11 3 Sudeste 7 Sudeste 0 -- -- 97
2020-09-09 07:00:00 11.1 0 Calma 6 Sudeste 0 -- -- 97
2020-09-09 06:00:00 11.3 3 Este 6 Sudeste 0 -- -- 96
2020-09-09 05:00:00 11.7 0 Calma 6 Sudeste 0 -- -- 96
2020-09-09 04:00:00 12.1 3 Sudeste 6 Sudeste 0 -- -- 96
2020-09-09 03:00:00 12.5 2 Sudeste 4 Sudeste 0 -- -- 94
2020-09-09 02:00:00 13.1 3 Sudeste 4 Sudeste 0 -- -- 92
2020-09-09 01:00:00 14.1 3 Sudeste 7 Este 0 -- -- 89
2020-09-09 00:00:00 14.7 0 Calma 4 Sudeste 0 -- -- 86
2020-09-08 23:00:00 15.8 0 Calma 4 Sudeste 0 -- -- 83
2020-09-08 22:00:00 17.1 0 Calma 5 Sudeste 0 -- -- 77
2020-09-08 21:00:00 19.2 2 Sudeste 9 Oeste 0 -- -- 69
2020-09-08 20:00:00 22.1 6 Sudoeste 11 Nordeste 0 -- -- 57
2020-09-08 19:00:00 23.3 4 Nordeste 26 Norte 0 -- -- 52
2020-09-08 18:00:00 23.4 14 Nordeste 32 Nordeste 0 -- -- 49
2020-09-08 17:00:00 23.6 16 Nordeste 33 Norte 0 -- -- 48
2020-09-08 16:00:00 23.9 15 Norte 33 Norte 0 -- -- 47
2020-09-08 15:00:00 24.3 13 Norte 26 Norte 0 -- -- 43
2020-09-08 14:00:00 24.1 7 Sudeste 28 Nordeste 0 -- -- 44
2020-09-08 13:00:00 22.7 4 Oeste 11 Este 0 -- -- 49
2020-09-08 12:00:00 19.2 2 Nordeste 9 Norte 0 -- -- 68
2020-09-08 11:00:00 15.8 0 Calma 5 Sudoeste 0 -- -- 83
2020-09-08 10:00:00 13 0 Calma 5 Sudeste 0 -- -- 97
2020-09-08 09:00:00 10.9 2 Sudeste 4 Sur 0 -- -- 98
2020-09-08 08:00:00 10.6 0 Calma 4 Sudeste 0 -- -- 98
2020-09-08 07:00:00 11 0 Calma 4 Este 0 -- -- 97
2020-09-08 06:00:00 11.5 0 Calma 5 Sudeste 0 -- -- 96
2020-09-08 05:00:00 12.2 2 Sudeste 6 Sudeste 0 -- -- 96
2020-09-08 04:00:00 12.7 2 Nordeste 9 Este 0 -- -- 94
2020-09-08 03:00:00 12.5 0 Calma 5 Noroeste 0 -- -- 95
2020-09-08 02:00:00 12.5 0 Calma 5 Noroeste 0 -- -- 94
2020-09-08 01:00:00 12.9 0 Calma 2 Norte 0 -- -- 93
2020-09-08 00:00:00 13.7 0 Calma 3 Sudeste 0 -- -- 91
2020-09-07 23:00:00 14.3 0 Calma 4 Sudeste 0 -- -- 88
2020-09-07 22:00:00 15.3 0 Calma 5 Sudeste 0 -- -- 82
2020-09-07 21:00:00 17.1 4 Sudeste 10 Norte 0 -- -- 72
2020-09-07 20:00:00 19 7 Norte 19 Norte 0 -- -- 61
2020-09-07 19:00:00 20.2 11 Norte 26 Norte 0 -- -- 58
2020-09-07 18:00:00 20.9 13 Norte 27 Noroeste 0 -- -- 54
2020-09-07 17:00:00 20.9 12 Norte 26 Nordeste 0 -- -- 51
2020-09-07 16:00:00 20.9 10 Norte 28 Norte 0 -- -- 48
2020-09-07 15:00:00 21.1 13 Nordeste 26 Este 0 -- -- 49
2020-09-07 14:00:00 20.5 12 Nordeste 28 Norte 0 -- -- 51
2020-09-07 13:00:00 19.4 8 Norte 19 Nordeste 0 -- -- 60
2020-09-07 12:00:00 17.9 5 Oeste 9 Noroeste 0 -- -- 82
2020-09-07 11:00:00 16.1 2 Noroeste 7 Norte 0 -- -- 95
2020-09-07 10:00:00 14.7 3 Norte 5 Norte 0.2 -- -- 98
2020-09-07 09:00:00 14.4 0 Calma 12 Noroeste 0.2 -- -- 98
2020-09-07 08:00:00 14.3 4 Norte 8 Norte 0.2 -- -- 98
2020-09-07 07:00:00 14.4 2 Nordeste 8 Sur 1.2 -- -- 97
2020-09-07 06:00:00 14.6 4 Este 8 Norte 0.2 -- -- 95
2020-09-07 05:00:00 14.7 0 Calma 4 Sur 0 -- -- 94
2020-09-07 04:00:00 15.1 2 Norte 4 Noroeste 0 -- -- 91
2020-09-07 03:00:00 15.2 0 Calma 4 Norte 0 -- -- 89
2020-09-07 02:00:00 15.5 0 Calma 6 Sur 0 -- -- 85
2020-09-07 01:00:00 16.1 3 Sudoeste 6 Sur 0 -- -- 84
2020-09-07 00:00:00 16.2 2 Nordeste 8 Sudoeste 0 -- -- 85
2020-09-06 23:00:00 16.4 3 Norte 6 Norte 0 -- -- 83
2020-09-06 22:00:00 16.5 0 Calma 6 Norte 0 -- -- 81
2020-09-06 21:00:00 17.3 0 Calma 13 Noroeste 0 -- -- 78
2020-09-06 20:00:00 17.6 4 Oeste 13 Norte 0 -- -- 78
2020-09-06 19:00:00 17.8 7 Noroeste 14 Oeste 0 -- -- 83
2020-09-06 18:00:00 17.6 6 Noroeste 23 Noroeste 0 -- -- 85
2020-09-06 17:00:00 18.4 8 Noroeste 27 Norte 0 -- -- 78
2020-09-06 16:00:00 20.6 18 Noroeste 28 Noroeste 0 -- -- 66
2020-09-06 15:00:00 20.6 13 Oeste 30 Noroeste 0 -- -- 67
2020-09-06 14:00:00 21.8 15 Noroeste 27 Noroeste 0 -- -- 59
2020-09-06 13:00:00 20.1 12 Noroeste 19 Norte 0 -- -- 65
2020-09-06 12:00:00 18.5 11 Oeste 17 Oeste 0 -- -- 76
2020-09-06 11:00:00 18.2 7 Oeste 15 Oeste 0 -- -- 78
2020-09-06 10:00:00 17.1 8 Oeste 14 Oeste 0 -- -- 80
2020-09-06 09:00:00 16.6 0 Calma 5 Norte 0 -- -- 86
2020-09-06 08:00:00 16.6 2 Oeste 12 Noroeste 0 -- -- 83
2020-09-06 07:00:00 16.9 7 Oeste 18 Oeste 0 -- -- 80
2020-09-06 06:00:00 17.2 3 Norte 8 Norte 0 -- -- 83
2020-09-06 05:00:00 17.4 2 Oeste 10 Noroeste 0 -- -- 83
2020-09-06 04:00:00 17.6 4 Norte 8 Sudoeste 0 -- -- 84
2020-09-06 03:00:00 17.6 3 Oeste 9 Noroeste 0 -- -- 88
2020-09-06 02:00:00 17.5 0 Calma 5 Noroeste 0 -- -- 89
2020-09-06 01:00:00 17.7 3 Norte 10 Norte 0 -- -- 87
2020-09-06 00:00:00 18.3 3 Norte 6 Noroeste 0 -- -- 81
2020-09-05 23:00:00 18.5 0 Calma 8 Nordeste 0 -- -- 80
2020-09-05 22:00:00 18.7 3 Norte 21 Noroeste 0 -- -- 80
2020-09-05 21:00:00 18.9 7 Norte 18 Norte 0 -- -- 82
2020-09-05 20:00:00 19.7 6 Noroeste 19 Noroeste 0 -- -- 82
2020-09-05 19:00:00 20.1 7 Noroeste 30 Norte 0 -- -- 82
2020-09-05 18:00:00 20.3 13 Norte 24 Norte 0 -- -- 81
2020-09-05 17:00:00 20.8 14 Norte 26 Norte 0 -- -- 79
2020-09-05 16:00:00 21.4 10 Nordeste 22 Norte 0 -- -- 74
2020-09-05 15:00:00 22 8 Norte 20 Noroeste 0 -- -- 72
2020-09-05 14:00:00 21.6 7 Noroeste 17 Nordeste 0 -- -- 75
2020-09-05 13:00:00 21.9 9 Norte 22 Noroeste 0 -- -- 74
2020-09-05 12:00:00 22.2 9 Noroeste 21 Noroeste 0 -- -- 77
2020-09-05 11:00:00 21.6 11 Noroeste 20 Noroeste 0 -- -- 75
2020-09-05 10:00:00 20.8 8 Noroeste 18 Noroeste 0 -- -- 85
2020-09-05 09:00:00 19.9 4 Noroeste 9 Norte 0 -- -- 87
2020-09-05 08:00:00 19.5 4 Norte 12 Oeste 0 -- -- 88
2020-09-05 07:00:00 19.3 3 Oeste 9 Oeste 0 -- -- 90
2020-09-05 06:00:00 19.4 0 Calma 9 Sudoeste 0 -- -- 90
2020-09-05 05:00:00 20 0 Calma 10 Norte 0 -- -- 89
2020-09-05 04:00:00 20.3 3 Norte 11 Noroeste 0 -- -- 89
2020-09-05 03:00:00 20.7 5 Noroeste 16 Noroeste 0 -- -- 88
2020-09-05 02:00:00 20.9 10 Oeste 21 Noroeste 0 -- -- 89
2020-09-05 01:00:00 20.7 3 Noroeste 18 Noroeste 0 -- -- 93
2020-09-05 00:00:00 20.2 6 Noroeste 12 Noroeste 0 -- -- 93
2020-09-04 23:00:00 21 2 Sur 10 Noroeste 0 -- -- 85
2020-09-04 22:00:00 22.5 6 Noroeste 14 Noroeste 0 -- -- 87
2020-09-04 21:00:00 23.7 10 Norte 18 Noroeste 0 -- -- 82
2020-09-04 20:00:00 27.4 9 Noroeste 22 Noroeste 0 -- -- 64
2020-09-04 19:00:00 31.3 13 Noroeste 28 Noroeste 0 -- -- 48
2020-09-04 18:00:00 35.2 3 Nordeste 17 Este 0 -- -- 28
2020-09-04 17:00:00 35.1 7 Este 18 Este 0 -- -- 29
2020-09-04 16:00:00 34.7 6 Este 17 Este 0 -- -- 32
2020-09-04 15:00:00 34.3 6 Sur 22 Este 0 -- -- 35
2020-09-04 14:00:00 32 12 Este 22 Este 0 -- -- 36
2020-09-04 13:00:00 29.8 7 Sudeste 23 Sudeste 0 -- -- 43
2020-09-04 12:00:00 24.2 2 Noroeste 8 Noroeste 0 -- -- 62
2020-09-04 11:00:00 19.8 4 Norte 7 Norte 0 -- -- 80
2020-09-04 10:00:00 15.5 0 Calma 4 Este 0 -- -- 94
2020-09-04 09:00:00 13.2 0 Calma 4 Sudeste 0 -- -- 98
2020-09-04 08:00:00 12.8 4 Sudeste 7 Sudeste 0 -- -- 98
2020-09-04 07:00:00 12.5 2 Sudeste 4 Sur 0 -- -- 97
2020-09-04 06:00:00 13.1 0 Calma 5 Sudeste 0 -- -- 97
2020-09-04 05:00:00 13.3 0 Calma 4 Sudeste 0 -- -- 96
2020-09-04 04:00:00 13.8 0 Calma 4 Este 0 -- -- 96
2020-09-04 03:00:00 14.3 0 Calma 5 Sudeste 0 -- -- 95
2020-09-04 02:00:00 14.8 0 Calma 5 Sudeste 0 -- -- 94
2020-09-04 01:00:00 15.5 3 Sudeste 5 Sudeste 0 -- -- 91
2020-09-04 00:00:00 16.4 0 Calma 6 Este 0 -- -- 89
2020-09-03 23:00:00 17.6 0 Calma 4 Este 0 -- -- 85
2020-09-03 22:00:00 19.3 0 Calma 5 Este 0 -- -- 79
2020-09-03 21:00:00 22.3 3 Sudeste 11 Norte 0 -- -- 69
2020-09-03 20:00:00 25.8 8 Noroeste 16 Noroeste 0 -- -- 56
2020-09-03 19:00:00 28 9 Noroeste 17 Noroeste 0 -- -- 51
2020-09-03 18:00:00 27.8 11 Nordeste 23 Norte 0 -- -- 51
2020-09-03 17:00:00 28.8 8 Norte 19 Norte 0 -- -- 50
2020-09-03 16:00:00 29 9 Norte 17 Norte 0 -- -- 35
2020-09-03 15:00:00 28.7 4 Este 15 Nordeste 0 -- -- 34
2020-09-03 14:00:00 26.5 5 Este 12 Sudeste 0 -- -- 42
2020-09-03 13:00:00 23.8 4 Nordeste 13 Sur 0 -- -- 49
2020-09-03 12:00:00 21.1 5 Sudeste 12 Sur 0 -- -- 59
2020-09-03 11:00:00 17.5 6 Sudeste 13 Sudeste 0 -- -- 74
2020-09-03 10:00:00 13.5 3 Sur 6 Sur 0 -- -- 94
2020-09-03 09:00:00 11.2 2 Sudeste 7 Sudeste 0 -- -- 99
2020-09-03 08:00:00 9.8 2 Nordeste 8 Sudeste 0 -- -- 98
2020-09-03 07:00:00 9.8 0 Calma 5 Sudeste 0 -- -- 97
2020-09-03 06:00:00 10.1 0 Calma 4 Sudeste 0 -- -- 96
2020-09-03 05:00:00 10.6 0 Calma 4 Sur 0 -- -- 96
2020-09-03 04:00:00 11 0 Calma 3 Nordeste 0 -- -- 94
2020-09-03 03:00:00 11.6 3 Sudeste 4 Este 0 -- -- 93
2020-09-03 02:00:00 12.2 0 Calma 6 Sudeste 0 -- -- 90
2020-09-03 01:00:00 13.1 4 Sur 10 Sudeste 0 -- -- 87
2020-09-03 00:00:00 13.9 6 Sudeste 9 Sudeste 0 -- -- 83
2020-09-02 23:00:00 14.7 4 Sudeste 7 Sudeste 0 -- -- 79
2020-09-02 22:00:00 16.2 4 Sudeste 8 Este 0 -- -- 71
2020-09-02 21:00:00 18.6 4 Sudeste 9 Nordeste 0 -- -- 57
2020-09-02 20:00:00 21.7 6 Nordeste 20 Nordeste 0 -- -- 46
2020-09-02 19:00:00 22.9 9 Nordeste 22 Nordeste 0 -- -- 43
2020-09-02 18:00:00 23.5 10 Norte 25 Norte 0 -- -- 43
2020-09-02 17:00:00 23.9 10 Nordeste 24 Norte 0 -- -- 42
2020-09-02 16:00:00 23.7 12 Norte 26 Norte 0 -- -- 47
2020-09-02 15:00:00 23.4 13 Nordeste 27 Nordeste 0 -- -- 46
2020-09-02 14:00:00 23.3 8 Norte 24 Noroeste 0 -- -- 48
2020-09-02 13:00:00 22.4 6 Norte 23 Oeste 0 -- -- 57
2020-09-02 12:00:00 20.2 3 Norte 11 Norte 0 -- -- 72
2020-09-02 11:00:00 18.6 5 Norte 10 Norte 0 -- -- 84
2020-09-02 10:00:00 14.9 2 Sur 5 Sur 0 -- -- 97
2020-09-02 09:00:00 13.3 0 Calma 3 Este 0 -- -- 99
2020-09-02 08:00:00 12.7 3 Sudeste 4 Sudeste 0 -- -- 98
2020-09-02 07:00:00 12.5 0 Calma 5 Este 0 -- -- 97
2020-09-02 06:00:00 13 3 Sudeste 5 Sudeste 0 -- -- 97
2020-09-02 05:00:00 13.3 3 Sudeste 5 Sudeste 0 -- -- 97
2020-09-02 04:00:00 13.4 3 Sudeste 4 Este 0 -- -- 97
2020-09-02 03:00:00 13.9 0 Calma 4 Este 0 -- -- 95
2020-09-02 02:00:00 14.6 2 Este 6 Sudeste 0 -- -- 95
2020-09-02 01:00:00 15.5 3 Sudeste 5 Sudeste 0 -- -- 93
2020-09-02 00:00:00 16.2 2 Sur 5 Este 0 -- -- 91
2020-09-01 23:00:00 17.1 0 Calma 3 Este 0 -- -- 86
2020-09-01 22:00:00 18.2 0 Calma 9 Norte 0 -- -- 82
2020-09-01 21:00:00 19.5 3 Norte 15 Norte 0 -- -- 74
2020-09-01 20:00:00 21.2 9 Norte 22 Noroeste 0 -- -- 67
2020-09-01 19:00:00 22.7 10 Norte 22 Norte 0 -- -- 61
2020-09-01 18:00:00 23.5 10 Norte 24 Noroeste 0 -- -- 58
2020-09-01 17:00:00 22.6 12 Nordeste 24 Nordeste 0 -- -- 57
2020-09-01 16:00:00 24 11 Norte 24 Noroeste 0 -- -- 53
2020-09-01 15:00:00 23 11 Norte 20 Norte 0 -- -- 55
2020-09-01 14:00:00 23.3 10 Nordeste 20 Norte 0 -- -- 49
2020-09-01 13:00:00 22.4 9 Nordeste 17 Nordeste 0 -- -- 45
2020-09-01 12:00:00 20.7 4 Norte 10 Norte 0 -- -- 57
2020-09-01 11:00:00 17.4 3 Norte 7 Noroeste 0 -- -- 72
2020-09-01 10:00:00 14.7 0 Calma 6 Este 0 -- -- 86
2020-09-01 09:00:00 12.8 3 Sudeste 8 Sudeste 0 -- -- 93
2020-09-01 08:00:00 11.7 2 Este 5 Sudeste 0 -- -- 96
2020-09-01 07:00:00 11.9 0 Calma 6 Sudeste 0 -- -- 96
2020-09-01 06:00:00 11.9 0 Calma 4 Este 0 -- -- 96
2020-09-01 05:00:00 12.2 0 Calma 6 Sudeste 0 -- -- 95
2020-09-01 04:00:00 12.3 4 Sudeste 8 Sudeste 0 -- -- 95
2020-09-01 03:00:00 12.8 4 Sudeste 5 Sudeste 0 -- -- 94
2020-09-01 02:00:00 13 0 Calma 4 Sudeste 0 -- -- 94
2020-09-01 01:00:00 13.8 2 Sur 8 Sudeste 0 -- -- 92
2020-09-01 00:00:00 14.5 2 Sudeste 5 Este 0 -- -- 90
2020-08-31 23:00:00 15.5 0 Calma 6 Sur 0 -- -- 88
2020-08-31 22:00:00 16.8 4 Sudeste 6 Sudeste 0 -- -- 84
2020-08-31 21:00:00 18.3 0 Calma 5 Sudeste 0 -- -- 77
2020-08-31 20:00:00 20.6 0 Calma 17 Nordeste 0 -- -- 65
2020-08-31 19:00:00 21.9 8 Nordeste 17 Nordeste 0 -- -- 59
2020-08-31 18:00:00 22.2 7 Norte 16 Norte 0 -- -- 58
2020-08-31 17:00:00 22.4 13 Norte 22 Norte 0 -- -- 59
2020-08-31 16:00:00 22.9 9 Norte 17 Norte 0 -- -- 49
2020-08-31 15:00:00 23.2 6 Oeste 13 Nordeste 0 -- -- 52
2020-08-31 14:00:00 21.3 5 Nordeste 21 Este 0 -- -- 52
2020-08-31 13:00:00 20 6 Este 21 Este 0 -- -- 60
2020-08-31 12:00:00 17.7 9 Este 19 Este 0 -- -- 74
2020-08-31 11:00:00 13.6 3 Sudeste 9 Sudeste 0 -- -- 100
2020-08-31 10:00:00 11.6 3 Sudeste 9 Sudeste 0 -- -- 100
2020-08-31 09:00:00 10.7 2 Sudeste 7 Este 0 -- -- 100
2020-08-31 08:00:00 10.4 4 Sudeste 10 Sudeste 0 -- -- 100
2020-08-31 07:00:00 10.5 6 Sudeste 13 Este 0 -- -- 100
2020-08-31 06:00:00 10.9 3 Sudeste 8 Sudeste 0 -- -- 100
2020-08-31 05:00:00 11.2 5 Sudeste 8 Sur 0 -- -- 100
2020-08-31 04:00:00 11.4 2 Sur 7 Sudeste 0 -- -- 100
2020-08-31 03:00:00 11.3 2 Este 5 Este 0 -- -- 99
2020-08-31 02:00:00 11.5 0 Calma 3 Sudeste 0 -- -- 99
2020-08-31 01:00:00 11.6 2 Sudeste 4 Sudeste 0 -- -- 98
2020-08-31 00:00:00 12.1 2 Sudeste 6 Sudeste 0 -- -- 97
2020-08-30 23:00:00 12.9 3 Sur 6 Sudeste 0 -- -- 96
2020-08-30 22:00:00 14 4 Sur 7 Sudeste 0 -- -- 95
2020-08-30 21:00:00 15 4 Sudeste 9 Sudeste 0 -- -- 92
2020-08-30 20:00:00 16.8 3 Nordeste 14 Nordeste 0.2 -- -- 83
2020-08-30 19:00:00 16.8 6 Nordeste 22 Norte 0 -- -- 80
2020-08-30 18:00:00 18.3 13 Noroeste 22 Noroeste 0 -- -- 72
2020-08-30 17:00:00 18.6 14 Noroeste 21 Noroeste 0 -- -- 69
2020-08-30 16:00:00 17.1 4 Noroeste 27 Oeste 0 -- -- 82
2020-08-30 15:00:00 16.2 2 Este 23 Oeste 0.4 -- -- 91
2020-08-30 14:00:00 19 6 Oeste 17 Oeste 0 -- -- 74
2020-08-30 13:00:00 15.2 4 Este 9 Este 0.2 -- -- 92
2020-08-30 12:00:00 13.6 3 Norte 10 Norte 0.8 -- -- 96
2020-08-30 11:00:00 13.1 2 Este 6 Sur 0.6 -- -- 98
2020-08-30 10:00:00 12.6 5 Oeste 27 Noroeste 3.8 -- -- 99
2020-08-30 09:00:00 12.8 12 Noroeste 19 Noroeste 0 -- -- 100
2020-08-30 08:00:00 10.8 2 Sudoeste 10 Este 0.2 -- -- 100
2020-08-30 07:00:00 10.6 0 Calma 5 Este 0 -- -- 100
2020-08-30 06:00:00 10.6 0 Calma 9 Este 0 -- -- 100
2020-08-30 05:00:00 10.6 2 Este 8 Este 0 -- -- 100
2020-08-30 04:00:00 11.3 3 Este 5 Este 0 -- -- 100
2020-08-30 03:00:00 11.6 0 Calma 6 Sur 0 -- -- 100
2020-08-30 02:00:00 11.7 4 Sudeste 6 Este 0 -- -- 99
2020-08-30 01:00:00 12 2 Norte 9 Noroeste 0 -- -- 99
2020-08-30 00:00:00 12.3 4 Norte 17 Noroeste 0 -- -- 98
2020-08-29 23:00:00 12.8 7 Noroeste 11 Oeste 0 -- -- 96
2020-08-29 22:00:00 14 10 Oeste 20 Sudoeste 0 -- -- 91
2020-08-29 21:00:00 14 5 Oeste 29 Noroeste 10 -- -- 97
2020-08-29 20:00:00 14.9 14 Oeste 25 Oeste 2 -- -- 95
2020-08-29 19:00:00 15.2 6 Noroeste 32 Oeste 5.6 -- -- 96
2020-08-29 18:00:00 17.3 18 Noroeste 36 Oeste 0.2 -- -- 85
2020-08-29 17:00:00 16.6 8 Oeste 28 Nordeste 4.8 -- -- 98
2020-08-29 16:00:00 16.8 11 Norte 23 Norte 1.2 -- -- 88
2020-08-29 15:00:00 17.6 17 Noroeste 38 Noroeste 0 -- -- 82
2020-08-29 14:00:00 18 19 Noroeste 32 Noroeste 0 -- -- 80
2020-08-29 13:00:00 17.9 8 Noroeste 20 Oeste 0.2 -- -- 83
2020-08-29 12:00:00 17.2 10 Oeste 22 Noroeste 0 -- -- 82
2020-08-29 11:00:00 15.1 3 Este 7 Este 0 -- -- 96
2020-08-29 10:00:00 14.3 2 Nordeste 5 Nordeste 0.4 -- -- 99
2020-08-29 09:00:00 13.4 0 Calma 6 Este 0 -- -- 99
2020-08-29 08:00:00 13.6 3 Norte 10 Noroeste 0 -- -- 99
2020-08-29 07:00:00 13.6 8 Noroeste 12 Noroeste 0 -- -- 100
2020-08-29 06:00:00 13.5 0 Calma 4 Nordeste 0 -- -- 100
2020-08-29 05:00:00 13.8 0 Calma 6 Sudeste 0.6 -- -- 100
2020-08-29 04:00:00 13.7 0 Calma 6 Este 0 -- -- 100
2020-08-29 03:00:00 13.6 0 Calma 8 Sudeste 0 -- -- 99
2020-08-29 02:00:00 14.1 0 Calma 6 Sudeste 0 -- -- 99
2020-08-29 01:00:00 14.7 3 Sudeste 8 Este 0.2 -- -- 99
2020-08-29 00:00:00 15 2 Oeste 8 Sudeste 0 -- -- 98
2020-08-28 23:00:00 15.5 2 Sur 5 Nordeste 0.4 -- -- 98
2020-08-28 22:00:00 15.8 2 Sudeste 6 Nordeste 0.2 -- -- 97
2020-08-28 21:00:00 16.1 0 Calma 7 Nordeste 0 -- -- 96
2020-08-28 20:00:00 16.2 0 Calma 19 Oeste 0 -- -- 94
2020-08-28 19:00:00 16.3 10 Noroeste 21 Noroeste 0.4 -- -- 92
2020-08-28 18:00:00 17 0 Calma 8 Norte 0 -- -- 93
2020-08-28 17:00:00 16.8 3 Oeste 13 Oeste 0.2 -- -- 93
2020-08-28 16:00:00 16.5 2 Noroeste 27 Noroeste 0.4 -- -- 92
2020-08-28 15:00:00 16.8 3 Noroeste 17 Noroeste 0.2 -- -- 96
2020-08-28 14:00:00 17.1 13 Noroeste 31 Noroeste 0.4 -- -- 94
2020-08-28 13:00:00 18 3 Noroeste 10 Noroeste 0 -- -- 89
2020-08-28 12:00:00 17.1 6 Oeste 19 Noroeste 0.2 -- -- 97
2020-08-28 11:00:00 16.8 9 Norte 24 Noroeste 0 -- -- 95
2020-08-28 10:00:00 17 2 Nordeste 8 Noroeste 0.2 -- -- 98
2020-08-28 09:00:00 16.7 7 Noroeste 13 Noroeste 0.8 -- -- 98
2020-08-28 08:00:00 17 7 Noroeste 26 Noroeste 0.4 -- -- 98
2020-08-28 07:00:00 17.8 17 Noroeste 30 Noroeste 1.2 -- -- 97
2020-08-28 06:00:00 18.9 15 Noroeste 32 Noroeste 1.6 -- -- 97
2020-08-28 05:00:00 20 3 Norte 7 Noroeste 0 -- -- 97
2020-08-28 04:00:00 20.2 0 Calma 4 Este 0 -- -- 97
2020-08-28 03:00:00 20.4 2 Este 5 Este 0.2 -- -- 96
2020-08-28 02:00:00 20.7 2 Norte 5 Noroeste 0 -- -- 93
2020-08-28 01:00:00 20.7 0 Calma 6 Norte 0 -- -- 91
2020-08-28 00:00:00 20.9 3 Sudeste 6 Este 0 -- -- 90
2020-08-27 23:00:00 21.5 3 Este 8 Oeste 0 -- -- 88
2020-08-27 22:00:00 22 5 Oeste 14 Noroeste 0 -- -- 85
2020-08-27 21:00:00 22.4 9 Oeste 15 Oeste 0 -- -- 82
2020-08-27 20:00:00 22.8 8 Noroeste 23 Noroeste 0 -- -- 81
2020-08-27 19:00:00 23.3 10 Noroeste 25 Noroeste 0 -- -- 79
2020-08-27 18:00:00 23.7 7 Norte 27 Noroeste 0 -- -- 78
2020-08-27 17:00:00 25.2 14 Noroeste 30 Noroeste 0 -- -- 73
2020-08-27 16:00:00 25.9 19 Noroeste 33 Noroeste 0 -- -- 70
2020-08-27 15:00:00 27.9 16 Noroeste 38 Noroeste 0 -- -- 64
2020-08-27 14:00:00 29.5 13 Norte 24 Noroeste 0 -- -- 56
2020-08-27 13:00:00 29 6 Noroeste 14 Noroeste 0 -- -- 56
2020-08-27 12:00:00 26 3 Este 17 Este 0 -- -- 64
2020-08-27 11:00:00 23.4 9 Este 17 Este 0 -- -- 77
2020-08-27 10:00:00 20.6 6 Este 12 Este 0 -- -- 90
2020-08-27 09:00:00 17.7 3 Sudeste 12 Sudeste 0 -- -- 99
2020-08-27 08:00:00 16.8 3 Sudeste 5 Sudeste 0 -- -- 98
2020-08-27 07:00:00 16.9 2 Sudeste 5 Sudeste 0 -- -- 97
2020-08-27 06:00:00 17 3 Sudeste 5 Sudeste 0 -- -- 97
2020-08-27 05:00:00 17.4 2 Sudeste 4 Sudeste 0 -- -- 97
2020-08-27 04:00:00 17.7 2 Este 5 Este 0 -- -- 96
2020-08-27 03:00:00 18 2 Sur 5 Este 0 -- -- 95
2020-08-27 02:00:00 18.6 2 Sur 6 Sudeste 0 -- -- 94
2020-08-27 01:00:00 19.3 5 Este 8 Este 0 -- -- 93
2020-08-27 00:00:00 20.2 4 Este 7 Este 0 -- -- 91
2020-08-26 23:00:00 21.3 3 Norte 10 Noroeste 0 -- -- 90
2020-08-26 22:00:00 22.1 4 Norte 17 Noroeste 0 -- -- 85
2020-08-26 21:00:00 23.4 7 Oeste 15 Norte 0 -- -- 80
2020-08-26 20:00:00 25.4 7 Norte 25 Norte 0 -- -- 69
2020-08-26 19:00:00 26.7 14 Norte 32 Nordeste 0 -- -- 65
2020-08-26 18:00:00 27.5 14 Norte 28 Norte 0 -- -- 63
2020-08-26 17:00:00 27.7 13 Norte 27 Norte 0 -- -- 61
2020-08-26 16:00:00 27 14 Norte 27 Nordeste 0 -- -- 66
2020-08-26 15:00:00 26.1 13 Norte 26 Norte 0 -- -- 70
2020-08-26 14:00:00 26.4 6 Nordeste 15 Noroeste 0 -- -- 64
2020-08-26 13:00:00 26.6 4 Este 11 Este 0 -- -- 64
2020-08-26 12:00:00 25 4 Sudeste 12 Este 0 -- -- 68
2020-08-26 11:00:00 23.3 5 Sudeste 10 Este 0 -- -- 74
2020-08-26 10:00:00 21.2 2 Oeste 4 Este 0 -- -- 84
2020-08-26 09:00:00 19.7 3 Sur 6 Sudeste 0 -- -- 91
2020-08-26 08:00:00 19 0 Calma 8 Este 0 -- -- 92
2020-08-26 07:00:00 19.1 0 Calma 5 Sudeste 0 -- -- 92
2020-08-26 06:00:00 19.1 4 Sur 8 Sudeste 0 -- -- 92
2020-08-26 05:00:00 19.4 4 Este 6 Este 0 -- -- 91
2020-08-26 04:00:00 20.3 2 Este 6 Este 0 -- -- 87
2020-08-26 03:00:00 20.5 3 Sur 8 Este 0 -- -- 87
2020-08-26 02:00:00 20.6 6 Sudeste 8 Sudeste 0 -- -- 87
2020-08-26 01:00:00 20.5 3 Sudeste 5 Sudeste 0 -- -- 86
2020-08-26 00:00:00 20.6 0 Calma 5 Sudeste 0 -- -- 87
2020-08-25 23:00:00 20.7 0 Calma 4 Sudeste 0 -- -- 85
2020-08-25 22:00:00 21.8 0 Calma 13 Norte 0 -- -- 81
2020-08-25 21:00:00 22.8 8 Norte 21 Noroeste 0 -- -- 76
2020-08-25 20:00:00 25.2 12 Noroeste 26 Noroeste 0 -- -- 59
2020-08-25 19:00:00 26.6 17 Noroeste 29 Noroeste 0 -- -- 51
2020-08-25 18:00:00 28.4 16 Noroeste 31 Noroeste 0 -- -- 51
2020-08-25 17:00:00 28 18 Noroeste 32 Noroeste 0 -- -- 52
2020-08-25 16:00:00 27.9 16 Noroeste 27 Noroeste 0 -- -- 49
2020-08-25 15:00:00 29.4 15 Noroeste 31 Noroeste 0 -- -- 44
2020-08-25 14:00:00 28.6 18 Noroeste 28 Noroeste 0 -- -- 49
2020-08-25 13:00:00 28.1 13 Noroeste 23 Noroeste 0 -- -- 52
2020-08-25 12:00:00 26.2 7 Noroeste 13 Noroeste 0 -- -- 55
2020-08-25 11:00:00 21.9 0 Calma 5 Sur 0 -- -- 68
2020-08-25 10:00:00 17.9 0 Calma 4 Este 0 -- -- 87
2020-08-25 09:00:00 14.6 0 Calma 4 Sur 0 -- -- 97
2020-08-25 08:00:00 13.6 0 Calma 6 Este 0 -- -- 97
2020-08-25 07:00:00 13.6 2 Este 5 Sudeste 0 -- -- 97
2020-08-25 06:00:00 14 0 Calma 4 Sur 0 -- -- 97
2020-08-25 05:00:00 14.3 4 Sur 8 Sudeste 0 -- -- 96
2020-08-25 04:00:00 14.6 4 Sudeste 6 Sudeste 0 -- -- 95
2020-08-25 03:00:00 14.9 0 Calma 8 Sudeste 0 -- -- 94
2020-08-25 02:00:00 15.6 3 Sudeste 5 Sudeste 0 -- -- 92
2020-08-25 01:00:00 16.3 4 Este 6 Este 0 -- -- 91
2020-08-25 00:00:00 16.9 3 Sur 8 Sudeste 0 -- -- 89
2020-08-24 23:00:00 18.7 3 Sudeste 8 Este 0 -- -- 81
2020-08-24 22:00:00 19.9 3 Este 7 Este 0 -- -- 77
2020-08-24 21:00:00 21.9 4 Sur 13 Nordeste 0 -- -- 69
2020-08-24 20:00:00 23.9 10 Norte 19 Nordeste 0 -- -- 62
2020-08-24 19:00:00 25 9 Norte 26 Norte 0 -- -- 61
2020-08-24 18:00:00 25 14 Norte 29 Norte 0 -- -- 61
2020-08-24 17:00:00 25.3 14 Norte 27 Norte 0 -- -- 59
2020-08-24 16:00:00 25.4 12 Norte 22 Norte 0 -- -- 59
2020-08-24 15:00:00 25.4 6 Nordeste 16 Este 0 -- -- 54
2020-08-24 14:00:00 24.1 7 Norte 17 Norte 0 -- -- 57
2020-08-24 13:00:00 22 2 Nordeste 9 Noroeste 0 -- -- 63
2020-08-24 12:00:00 20.6 5 Nordeste 9 Nordeste 0 -- -- 75
2020-08-24 11:00:00 18.8 4 Noroeste 9 Oeste 0 -- -- 85
2020-08-24 10:00:00 15.5 2 Noroeste 5 Sudeste 0 -- -- 97
2020-08-24 09:00:00 14.3 0 Calma 4 Oeste 0 -- -- 98
2020-08-24 08:00:00 13.3 0 Calma 2 Este 0 -- -- 98
2020-08-24 07:00:00 13.1 0 Calma 2 Sudeste 0 -- -- 98
2020-08-24 06:00:00 13.2 0 Calma 3 Sudeste 0 -- -- 97
2020-08-24 05:00:00 13.6 2 Este 4 Sudeste 0 -- -- 97
2020-08-24 04:00:00 13.9 3 Este 4 Este 0 -- -- 96
2020-08-24 03:00:00 14.3 0 Calma 7 Sudeste 0 -- -- 95
2020-08-24 02:00:00 15 3 Sudeste 5 Sudeste 0 -- -- 94
2020-08-24 01:00:00 15.5 2 Sudeste 9 Sudeste 0 -- -- 93
2020-08-24 00:00:00 16.2 4 Este 7 Sudeste 0 -- -- 91
2020-08-23 23:00:00 17.3 0 Calma 4 Sudoeste 0 -- -- 88
2020-08-23 22:00:00 18.4 2 Sudeste 8 Sudoeste 0 -- -- 83
2020-08-23 21:00:00 19.9 5 Norte 17 Nordeste 0 -- -- 77
2020-08-23 20:00:00 21.1 10 Norte 22 Norte 0 -- -- 71
2020-08-23 19:00:00 21.5 12 Norte 24 Norte 0 -- -- 68
2020-08-23 18:00:00 22.8 12 Norte 26 Norte 0 -- -- 64
2020-08-23 17:00:00 23.1 14 Norte 30 Norte 0 -- -- 63
2020-08-23 16:00:00 24.1 12 Norte 24 Norte 0 -- -- 60
2020-08-23 15:00:00 23.9 10 Norte 20 Nordeste 0 -- -- 61
2020-08-23 14:00:00 24.2 6 Norte 18 Norte 0 -- -- 58
2020-08-23 13:00:00 22.8 6 Noroeste 18 Noroeste 0 -- -- 60
2020-08-23 12:00:00 21.2 6 Norte 14 Noroeste 0 -- -- 67
2020-08-23 11:00:00 19.2 2 Oeste 6 Sur 0 -- -- 84
2020-08-23 10:00:00 17.7 3 Sudeste 10 Sur 0 -- -- 95
2020-08-23 09:00:00 16.6 0 Calma 0 Calma 0 -- -- 100
2020-08-23 08:00:00 16.3 0 Calma 3 Sur 0 -- -- 100
2020-08-23 07:00:00 16.4 0 Calma 3 Sudeste 0 -- -- 99
2020-08-23 06:00:00 16.5 0 Calma 5 Sudeste 0 -- -- 98
2020-08-23 05:00:00 16.3 3 Este 5 Este 0 -- -- 98
2020-08-23 04:00:00 16.6 0 Calma 3 Sudeste 0 -- -- 97
2020-08-23 03:00:00 17.3 0 Calma 3 Sudeste 0 -- -- 96
2020-08-23 02:00:00 17.8 0 Calma 4 Oeste 0 -- -- 95
2020-08-23 01:00:00 18.3 0 Calma 6 Norte 0 -- -- 95
2020-08-23 00:00:00 18.7 3 Sudeste 15 Norte 0.2 -- -- 93
2020-08-22 23:00:00 19.5 4 Noroeste 14 Norte 0 -- -- 86
2020-08-22 22:00:00 19.9 3 Oeste 7 Noroeste 0 -- -- 83
2020-08-22 21:00:00 20.3 4 Norte 15 Noroeste 0 -- -- 78
2020-08-22 20:00:00 20.6 8 Noroeste 20 Noroeste 0 -- -- 73
2020-08-22 19:00:00 20.8 12 Norte 23 Norte 0 -- -- 72
2020-08-22 18:00:00 21.5 10 Norte 18 Norte 0 -- -- 74
2020-08-22 17:00:00 21.1 10 Norte 27 Noroeste 0 -- -- 79
2020-08-22 16:00:00 21.5 12 Norte 27 Norte 0 -- -- 79
2020-08-22 15:00:00 23.5 14 Norte 28 Nordeste 0 -- -- 71
2020-08-22 14:00:00 23.8 6 Norte 21 Norte 0 -- -- 67
2020-08-22 13:00:00 22.7 6 Norte 19 Noroeste 0 -- -- 73
2020-08-22 12:00:00 22.1 6 Norte 13 Oeste 0 -- -- 71
2020-08-22 11:00:00 19.3 5 Norte 9 Norte 0 -- -- 89
2020-08-22 10:00:00 16.8 3 Sudeste 6 Sudeste 0 -- -- 99
2020-08-22 09:00:00 16.2 2 Sur 7 Sudeste 0 -- -- 100
2020-08-22 08:00:00 16 0 Calma 5 Sudeste 0 -- -- 100
2020-08-22 07:00:00 15.9 3 Sur 6 Sur 0 -- -- 99
2020-08-22 06:00:00 16.1 5 Sudeste 9 Sudeste 0 -- -- 99
2020-08-22 05:00:00 16.1 0 Calma 4 Sudeste 0 -- -- 98
2020-08-22 04:00:00 16.4 0 Calma 6 Sudeste 0 -- -- 98
2020-08-22 03:00:00 16.5 3 Sur 8 Sudeste 0 -- -- 97
2020-08-22 02:00:00 17.3 3 Sur 6 Este 0 -- -- 97
2020-08-22 01:00:00 18 3 Este 6 Este 0 -- -- 96
2020-08-22 00:00:00 18.4 0 Calma 6 Sudeste 0 -- -- 96